sensor_id;sensor_type;location;lat;lon;timestamp;P1;durP1;ratioP1;P2;durP2;ratioP2
47531;SDS011;33273;52.254;7.988;2022-11-15T00:02:23;17.70;;;10.50;;
47531;SDS011;33273;52.254;7.988;2022-11-15T00:05:07;14.57;;;10.13;;
47531;SDS011;33273;52.254;7.988;2022-11-15T00:07:52;14.70;;;10.00;;
47531;SDS011;33273;52.254;7.988;2022-11-15T00:10:36;14.73;;;9.95;;
47531;SDS011;33273;52.254;7.988;2022-11-15T00:13:21;13.82;;;9.57;;
47531;SDS011;33273;52.254;7.988;2022-11-15T00:16:06;13.55;;;9.77;;
47531;SDS011;33273;52.254;7.988;2022-11-15T00:18:51;12.90;;;8.93;;
47531;SDS011;33273;52.254;7.988;2022-11-15T00:21:36;14.63;;;9.73;;
47531;SDS011;33273;52.254;7.988;2022-11-15T00:24:20;15.55;;;9.68;;
47531;SDS011;33273;52.254;7.988;2022-11-15T00:27:04;14.93;;;10.13;;
47531;SDS011;33273;52.254;7.988;2022-11-15T00:29:49;15.35;;;9.30;;
47531;SDS011;33273;52.254;7.988;2022-11-15T00:32:37;17.88;;;10.20;;
47531;SDS011;33273;52.254;7.988;2022-11-15T00:35:21;19.70;;;11.50;;
47531;SDS011;33273;52.254;7.988;2022-11-15T00:38:06;15.23;;;9.98;;
47531;SDS011;33273;52.254;7.988;2022-11-15T00:40:50;17.25;;;11.50;;
47531;SDS011;33273;52.254;7.988;2022-11-15T00:43:34;17.02;;;10.18;;
47531;SDS011;33273;52.254;7.988;2022-11-15T00:46:19;17.58;;;10.82;;
47531;SDS011;33273;52.254;7.988;2022-11-15T00:49:03;17.80;;;10.80;;
47531;SDS011;33273;52.254;7.988;2022-11-15T00:51:48;16.58;;;10.23;;
47531;SDS011;33273;52.254;7.988;2022-11-15T00:54:32;16.13;;;9.57;;
47531;SDS011;33273;52.254;7.988;2022-11-15T00:57:16;17.95;;;10.18;;
47531;SDS011;33273;52.254;7.988;2022-11-15T01:00:01;16.35;;;10.38;;
47531;SDS011;33273;52.254;7.988;2022-11-15T01:02:45;16.05;;;10.05;;
47531;SDS011;33273;52.254;7.988;2022-11-15T01:05:30;14.93;;;9.68;;
47531;SDS011;33273;52.254;7.988;2022-11-15T01:08:15;13.77;;;9.15;;
47531;SDS011;33273;52.254;7.988;2022-11-15T01:11:01;13.02;;;8.95;;
47531;SDS011;33273;52.254;7.988;2022-11-15T01:13:51;14.50;;;9.27;;
47531;SDS011;33273;52.254;7.988;2022-11-15T01:16:36;12.95;;;8.73;;
47531;SDS011;33273;52.254;7.988;2022-11-15T01:19:20;14.40;;;8.73;;
47531;SDS011;33273;52.254;7.988;2022-11-15T01:22:04;12.18;;;7.72;;
47531;SDS011;33273;52.254;7.988;2022-11-15T01:24:49;11.45;;;8.43;;
47531;SDS011;33273;52.254;7.988;2022-11-15T01:27:35;13.88;;;8.32;;
47531;SDS011;33273;52.254;7.988;2022-11-15T01:30:19;14.45;;;7.75;;
47531;SDS011;33273;52.254;7.988;2022-11-15T01:33:05;12.70;;;8.73;;
47531;SDS011;33273;52.254;7.988;2022-11-15T01:35:50;12.65;;;8.50;;
47531;SDS011;33273;52.254;7.988;2022-11-15T01:38:34;12.23;;;8.10;;
47531;SDS011;33273;52.254;7.988;2022-11-15T01:41:19;10.85;;;7.55;;
47531;SDS011;33273;52.254;7.988;2022-11-15T01:47:24;10.35;;;7.03;;
47531;SDS011;33273;52.254;7.988;2022-11-15T01:50:15;10.45;;;7.30;;
47531;SDS011;33273;52.254;7.988;2022-11-15T01:53:05;13.45;;;8.50;;
47531;SDS011;33273;52.254;7.988;2022-11-15T01:55:50;11.52;;;7.35;;
47531;SDS011;33273;52.254;7.988;2022-11-15T01:58:38;14.02;;;7.47;;
47531;SDS011;33273;52.254;7.988;2022-11-15T02:01:25;10.63;;;7.53;;
47531;SDS011;33273;52.254;7.988;2022-11-15T02:04:15;11.93;;;8.15;;
47531;SDS011;33273;52.254;7.988;2022-11-15T02:07:04;11.85;;;7.47;;
47531;SDS011;33273;52.254;7.988;2022-11-15T02:09:51;13.03;;;8.87;;
47531;SDS011;33273;52.254;7.988;2022-11-15T02:12:36;11.52;;;7.43;;
47531;SDS011;33273;52.254;7.988;2022-11-15T02:15:21;12.93;;;8.18;;
47531;SDS011;33273;52.254;7.988;2022-11-15T02:18:32;12.30;;;8.23;;
47531;SDS011;33273;52.254;7.988;2022-11-15T02:21:28;11.75;;;7.78;;
47531;SDS011;33273;52.254;7.988;2022-11-15T02:27:48;10.20;;;8.10;;
47531;SDS011;33273;52.254;7.988;2022-11-15T02:40:00;10.60;;;7.43;;
47531;SDS011;33273;52.254;7.988;2022-11-15T02:42:55;13.57;;;7.60;;
47531;SDS011;33273;52.254;7.988;2022-11-15T02:46:22;12.95;;;7.57;;
47531;SDS011;33273;52.254;7.988;2022-11-15T02:49:35;17.73;;;7.93;;
47531;SDS011;33273;52.254;7.988;2022-11-15T02:52:24;12.05;;;6.97;;
47531;SDS011;33273;52.254;7.988;2022-11-15T03:07:53;10.23;;;7.07;;
47531;SDS011;33273;52.254;7.988;2022-11-15T03:10:42;10.45;;;7.55;;
47531;SDS011;33273;52.254;7.988;2022-11-15T03:16:58;11.95;;;7.50;;
47531;SDS011;33273;52.254;7.988;2022-11-15T03:19:56;13.43;;;7.72;;
47531;SDS011;33273;52.254;7.988;2022-11-15T03:22:43;10.60;;;7.22;;
47531;SDS011;33273;52.254;7.988;2022-11-15T03:25:29;11.80;;;7.45;;
47531;SDS011;33273;52.254;7.988;2022-11-15T03:28:20;10.52;;;7.80;;
47531;SDS011;33273;52.254;7.988;2022-11-15T03:31:08;11.55;;;7.50;;
47531;SDS011;33273;52.254;7.988;2022-11-15T03:37:09;12.50;;;8.07;;
47531;SDS011;33273;52.254;7.988;2022-11-15T03:39:56;12.63;;;7.88;;
47531;SDS011;33273;52.254;7.988;2022-11-15T03:42:48;12.10;;;8.15;;
47531;SDS011;33273;52.254;7.988;2022-11-15T03:46:02;11.57;;;8.57;;
47531;SDS011;33273;52.254;7.988;2022-11-15T03:48:57;13.25;;;7.57;;
47531;SDS011;33273;52.254;7.988;2022-11-15T03:51:56;17.70;;;8.30;;
47531;SDS011;33273;52.254;7.988;2022-11-15T03:54:52;10.68;;;8.65;;
47531;SDS011;33273;52.254;7.988;2022-11-15T03:57:38;10.52;;;6.97;;
47531;SDS011;33273;52.254;7.988;2022-11-15T04:00:23;11.98;;;8.43;;
47531;SDS011;33273;52.254;7.988;2022-11-15T04:03:07;13.10;;;8.13;;
47531;SDS011;33273;52.254;7.988;2022-11-15T04:05:52;11.45;;;7.57;;
47531;SDS011;33273;52.254;7.988;2022-11-15T04:08:36;14.75;;;8.52;;
47531;SDS011;33273;52.254;7.988;2022-11-15T04:11:21;10.70;;;8.45;;
47531;SDS011;33273;52.254;7.988;2022-11-15T04:14:05;11.80;;;7.82;;
47531;SDS011;33273;52.254;7.988;2022-11-15T04:16:50;11.32;;;7.38;;
47531;SDS011;33273;52.254;7.988;2022-11-15T04:19:34;9.45;;;7.18;;
47531;SDS011;33273;52.254;7.988;2022-11-15T04:22:37;11.30;;;8.32;;
47531;SDS011;33273;52.254;7.988;2022-11-15T04:25:41;16.55;;;7.90;;
47531;SDS011;33273;52.254;7.988;2022-11-15T04:28:26;12.00;;;7.68;;
47531;SDS011;33273;52.254;7.988;2022-11-15T04:31:11;12.40;;;7.57;;
47531;SDS011;33273;52.254;7.988;2022-11-15T04:33:55;11.35;;;8.15;;
47531;SDS011;33273;52.254;7.988;2022-11-15T04:36:41;12.38;;;7.72;;
47531;SDS011;33273;52.254;7.988;2022-11-15T04:39:44;12.38;;;8.43;;
47531;SDS011;33273;52.254;7.988;2022-11-15T04:42:30;10.82;;;7.60;;
47531;SDS011;33273;52.254;7.988;2022-11-15T04:45:14;13.00;;;7.97;;
47531;SDS011;33273;52.254;7.988;2022-11-15T04:47:59;11.05;;;7.28;;
47531;SDS011;33273;52.254;7.988;2022-11-15T04:50:44;11.60;;;7.30;;
47531;SDS011;33273;52.254;7.988;2022-11-15T04:53:28;13.82;;;7.93;;
47531;SDS011;33273;52.254;7.988;2022-11-15T04:56:12;13.57;;;7.88;;
47531;SDS011;33273;52.254;7.988;2022-11-15T04:58:57;11.30;;;7.88;;
47531;SDS011;33273;52.254;7.988;2022-11-15T05:01:41;16.30;;;8.65;;
47531;SDS011;33273;52.254;7.988;2022-11-15T05:04:26;9.98;;;7.78;;
47531;SDS011;33273;52.254;7.988;2022-11-15T05:07:10;10.63;;;7.43;;
47531;SDS011;33273;52.254;7.988;2022-11-15T05:09:56;11.13;;;7.45;;
47531;SDS011;33273;52.254;7.988;2022-11-15T05:12:40;12.57;;;8.25;;
47531;SDS011;33273;52.254;7.988;2022-11-15T05:15:25;12.35;;;7.78;;
47531;SDS011;33273;52.254;7.988;2022-11-15T05:18:09;11.32;;;8.40;;
47531;SDS011;33273;52.254;7.988;2022-11-15T05:20:54;17.17;;;7.57;;
47531;SDS011;33273;52.254;7.988;2022-11-15T05:23:39;12.32;;;7.82;;
47531;SDS011;33273;52.254;7.988;2022-11-15T05:26:24;9.45;;;7.15;;
47531;SDS011;33273;52.254;7.988;2022-11-15T05:29:08;10.88;;;7.28;;
47531;SDS011;33273;52.254;7.988;2022-11-15T05:31:54;10.85;;;8.00;;
47531;SDS011;33273;52.254;7.988;2022-11-15T05:34:39;15.35;;;8.07;;
47531;SDS011;33273;52.254;7.988;2022-11-15T05:37:23;13.65;;;7.43;;
47531;SDS011;33273;52.254;7.988;2022-11-15T05:40:08;11.73;;;7.68;;
47531;SDS011;33273;52.254;7.988;2022-11-15T05:42:53;11.02;;;7.95;;
47531;SDS011;33273;52.254;7.988;2022-11-15T05:45:37;12.05;;;7.85;;
47531;SDS011;33273;52.254;7.988;2022-11-15T05:48:22;11.48;;;7.03;;
47531;SDS011;33273;52.254;7.988;2022-11-15T05:51:06;13.00;;;7.32;;
47531;SDS011;33273;52.254;7.988;2022-11-15T05:53:51;10.35;;;7.78;;
47531;SDS011;33273;52.254;7.988;2022-11-15T05:56:36;11.75;;;7.40;;
47531;SDS011;33273;52.254;7.988;2022-11-15T05:59:20;12.00;;;7.63;;
47531;SDS011;33273;52.254;7.988;2022-11-15T06:02:05;9.65;;;7.38;;
47531;SDS011;33273;52.254;7.988;2022-11-15T06:04:50;11.02;;;8.18;;
47531;SDS011;33273;52.254;7.988;2022-11-15T06:07:34;14.20;;;8.75;;
47531;SDS011;33273;52.254;7.988;2022-11-15T06:10:19;10.63;;;7.13;;
47531;SDS011;33273;52.254;7.988;2022-11-15T06:13:04;11.15;;;7.22;;
47531;SDS011;33273;52.254;7.988;2022-11-15T06:15:49;9.27;;;6.75;;
47531;SDS011;33273;52.254;7.988;2022-11-15T06:18:34;12.32;;;7.30;;
47531;SDS011;33273;52.254;7.988;2022-11-15T06:21:21;10.80;;;7.57;;
47531;SDS011;33273;52.254;7.988;2022-11-15T06:24:05;13.63;;;6.55;;
47531;SDS011;33273;52.254;7.988;2022-11-15T06:26:50;11.25;;;7.18;;
47531;SDS011;33273;52.254;7.988;2022-11-15T06:29:34;11.95;;;7.30;;
47531;SDS011;33273;52.254;7.988;2022-11-15T06:32:19;11.25;;;7.50;;
47531;SDS011;33273;52.254;7.988;2022-11-15T06:35:04;11.43;;;7.95;;
47531;SDS011;33273;52.254;7.988;2022-11-15T06:37:49;11.70;;;7.55;;
47531;SDS011;33273;52.254;7.988;2022-11-15T06:40:34;11.00;;;7.35;;
47531;SDS011;33273;52.254;7.988;2022-11-15T06:43:19;9.93;;;6.70;;
47531;SDS011;33273;52.254;7.988;2022-11-15T06:46:04;12.80;;;7.10;;
47531;SDS011;33273;52.254;7.988;2022-11-15T06:48:52;10.95;;;7.38;;
47531;SDS011;33273;52.254;7.988;2022-11-15T06:51:37;12.35;;;8.20;;
47531;SDS011;33273;52.254;7.988;2022-11-15T06:54:22;9.75;;;7.20;;
47531;SDS011;33273;52.254;7.988;2022-11-15T06:57:07;12.60;;;7.95;;
47531;SDS011;33273;52.254;7.988;2022-11-15T06:59:51;13.30;;;6.97;;
47531;SDS011;33273;52.254;7.988;2022-11-15T07:02:36;10.18;;;7.15;;
47531;SDS011;33273;52.254;7.988;2022-11-15T07:05:20;10.05;;;6.90;;
47531;SDS011;33273;52.254;7.988;2022-11-15T07:08:04;11.13;;;8.10;;
47531;SDS011;33273;52.254;7.988;2022-11-15T07:10:50;12.48;;;7.40;;
47531;SDS011;33273;52.254;7.988;2022-11-15T07:13:35;10.63;;;7.30;;
47531;SDS011;33273;52.254;7.988;2022-11-15T07:16:21;10.38;;;7.30;;
47531;SDS011;33273;52.254;7.988;2022-11-15T07:19:05;9.02;;;6.50;;
47531;SDS011;33273;52.254;7.988;2022-11-15T07:21:50;10.90;;;7.55;;
47531;SDS011;33273;52.254;7.988;2022-11-15T07:24:34;11.35;;;6.70;;
47531;SDS011;33273;52.254;7.988;2022-11-15T07:27:18;10.38;;;7.20;;
47531;SDS011;33273;52.254;7.988;2022-11-15T07:30:02;10.02;;;6.88;;
47531;SDS011;33273;52.254;7.988;2022-11-15T07:32:52;13.23;;;7.57;;
47531;SDS011;33273;52.254;7.988;2022-11-15T07:35:39;10.23;;;7.07;;
47531;SDS011;33273;52.254;7.988;2022-11-15T07:38:23;8.82;;;6.38;;
47531;SDS011;33273;52.254;7.988;2022-11-15T07:41:08;9.38;;;6.75;;
47531;SDS011;33273;52.254;7.988;2022-11-15T07:43:52;9.52;;;6.53;;
47531;SDS011;33273;52.254;7.988;2022-11-15T07:46:37;8.88;;;6.85;;
47531;SDS011;33273;52.254;7.988;2022-11-15T07:49:22;9.02;;;6.72;;
47531;SDS011;33273;52.254;7.988;2022-11-15T07:52:07;10.15;;;7.50;;
47531;SDS011;33273;52.254;7.988;2022-11-15T07:54:51;8.95;;;6.50;;
47531;SDS011;33273;52.254;7.988;2022-11-15T07:57:37;8.27;;;6.18;;
47531;SDS011;33273;52.254;7.988;2022-11-15T08:00:21;13.70;;;6.78;;
47531;SDS011;33273;52.254;7.988;2022-11-15T08:03:07;9.70;;;6.70;;
47531;SDS011;33273;52.254;7.988;2022-11-15T08:05:53;8.95;;;6.47;;
47531;SDS011;33273;52.254;7.988;2022-11-15T08:08:38;8.18;;;6.25;;
47531;SDS011;33273;52.254;7.988;2022-11-15T08:11:22;9.43;;;6.28;;
47531;SDS011;33273;52.254;7.988;2022-11-15T08:14:06;9.65;;;6.45;;
47531;SDS011;33273;52.254;7.988;2022-11-15T08:16:51;13.25;;;5.88;;
47531;SDS011;33273;52.254;7.988;2022-11-15T08:19:36;11.20;;;5.80;;
47531;SDS011;33273;52.254;7.988;2022-11-15T08:22:21;9.02;;;6.10;;
47531;SDS011;33273;52.254;7.988;2022-11-15T08:25:05;10.77;;;6.10;;
47531;SDS011;33273;52.254;7.988;2022-11-15T08:27:51;9.52;;;6.15;;
47531;SDS011;33273;52.254;7.988;2022-11-15T08:30:39;10.40;;;6.55;;
47531;SDS011;33273;52.254;7.988;2022-11-15T08:33:27;9.20;;;6.40;;
47531;SDS011;33273;52.254;7.988;2022-11-15T08:36:13;8.95;;;6.65;;
47531;SDS011;33273;52.254;7.988;2022-11-15T08:39:00;9.30;;;6.28;;
47531;SDS011;33273;52.254;7.988;2022-11-15T08:41:45;11.73;;;6.50;;
47531;SDS011;33273;52.254;7.988;2022-11-15T08:44:29;8.40;;;5.95;;
47531;SDS011;33273;52.254;7.988;2022-11-15T08:47:13;8.52;;;5.88;;
47531;SDS011;33273;52.254;7.988;2022-11-15T08:49:58;8.43;;;5.35;;
47531;SDS011;33273;52.254;7.988;2022-11-15T08:52:42;9.02;;;6.18;;
47531;SDS011;33273;52.254;7.988;2022-11-15T08:55:27;8.30;;;6.05;;
47531;SDS011;33273;52.254;7.988;2022-11-15T08:58:12;7.93;;;5.78;;
47531;SDS011;33273;52.254;7.988;2022-11-15T09:00:56;7.80;;;5.78;;
47531;SDS011;33273;52.254;7.988;2022-11-15T09:03:41;7.55;;;5.63;;
47531;SDS011;33273;52.254;7.988;2022-11-15T09:06:25;9.55;;;6.85;;
47531;SDS011;33273;52.254;7.988;2022-11-15T09:09:10;9.15;;;5.82;;
47531;SDS011;33273;52.254;7.988;2022-11-15T09:11:54;8.35;;;5.75;;
47531;SDS011;33273;52.254;7.988;2022-11-15T09:14:39;8.45;;;5.20;;
47531;SDS011;33273;52.254;7.988;2022-11-15T09:17:23;7.43;;;5.13;;
47531;SDS011;33273;52.254;7.988;2022-11-15T09:20:08;8.70;;;5.18;;
47531;SDS011;33273;52.254;7.988;2022-11-15T09:22:53;8.45;;;4.65;;
47531;SDS011;33273;52.254;7.988;2022-11-15T09:25:37;7.50;;;5.47;;
47531;SDS011;33273;52.254;7.988;2022-11-15T09:28:21;7.55;;;4.80;;
47531;SDS011;33273;52.254;7.988;2022-11-15T09:31:06;6.75;;;5.20;;
47531;SDS011;33273;52.254;7.988;2022-11-15T09:33:52;8.20;;;5.05;;
47531;SDS011;33273;52.254;7.988;2022-11-15T09:36:36;8.02;;;4.57;;
47531;SDS011;33273;52.254;7.988;2022-11-15T09:39:20;7.97;;;4.20;;
47531;SDS011;33273;52.254;7.988;2022-11-15T09:50:50;7.68;;;3.90;;
47531;SDS011;33273;52.254;7.988;2022-11-15T09:56:26;8.32;;;3.60;;
47531;SDS011;33273;52.254;7.988;2022-11-15T10:04:58;4.72;;;3.05;;
47531;SDS011;33273;52.254;7.988;2022-11-15T10:10:15;4.82;;;2.67;;
47531;SDS011;33273;52.254;7.988;2022-11-15T10:12:44;3.60;;;2.47;;
47531;SDS011;33273;52.254;7.988;2022-11-15T10:15:14;6.28;;;2.90;;
47531;SDS011;33273;52.254;7.988;2022-11-15T10:21:00;2.92;;;1.70;;
47531;SDS011;33273;52.254;7.988;2022-11-15T10:23:38;5.15;;;2.25;;
47531;SDS011;33273;52.254;7.988;2022-11-15T10:26:04;4.57;;;1.90;;
47531;SDS011;33273;52.254;7.988;2022-11-15T10:28:34;3.85;;;2.08;;
47531;SDS011;33273;52.254;7.988;2022-11-15T10:31:00;3.95;;;2.00;;
47531;SDS011;33273;52.254;7.988;2022-11-15T10:33:31;2.97;;;1.83;;
47531;SDS011;33273;52.254;7.988;2022-11-15T10:49:21;3.83;;;1.80;;
47531;SDS011;33273;52.254;7.988;2022-11-15T10:51:57;2.88;;;1.80;;
47531;SDS011;33273;52.254;7.988;2022-11-15T10:57:14;3.70;;;1.70;;
47531;SDS011;33273;52.254;7.988;2022-11-15T11:00:45;2.90;;;1.58;;
47531;SDS011;33273;52.254;7.988;2022-11-15T11:03:01;3.95;;;1.60;;
47531;SDS011;33273;52.254;7.988;2022-11-15T11:05:39;3.10;;;1.70;;
47531;SDS011;33273;52.254;7.988;2022-11-15T11:10:51;6.43;;;1.98;;
47531;SDS011;33273;52.254;7.988;2022-11-15T11:13:29;4.63;;;1.70;;
47531;SDS011;33273;52.254;7.988;2022-11-15T11:18:59;4.05;;;1.70;;
47531;SDS011;33273;52.254;7.988;2022-11-15T11:26:52;2.92;;;1.63;;
47531;SDS011;33273;52.254;7.988;2022-11-15T11:33:01;5.43;;;1.63;;
47531;SDS011;33273;52.254;7.988;2022-11-15T11:43:48;1.75;;;1.30;;
47531;SDS011;33273;52.254;7.988;2022-11-15T12:00:21;2.15;;;1.20;;
47531;SDS011;33273;52.254;7.988;2022-11-15T12:11:13;3.33;;;1.20;;
47531;SDS011;33273;52.254;7.988;2022-11-15T12:13:49;2.58;;;1.33;;
47531;SDS011;33273;52.254;7.988;2022-11-15T12:16:30;2.85;;;1.13;;
47531;SDS011;33273;52.254;7.988;2022-11-15T12:19:02;2.17;;;1.30;;
47531;SDS011;33273;52.254;7.988;2022-11-15T12:24:34;2.22;;;0.90;;
47531;SDS011;33273;52.254;7.988;2022-11-15T12:29:38;2.72;;;1.05;;
47531;SDS011;33273;52.254;7.988;2022-11-15T12:32:27;1.98;;;1.10;;
47531;SDS011;33273;52.254;7.988;2022-11-15T12:34:58;1.75;;;1.00;;
47531;SDS011;33273;52.254;7.988;2022-11-15T12:37:32;4.10;;;1.00;;
47531;SDS011;33273;52.254;7.988;2022-11-15T12:43:34;2.90;;;1.17;;
47531;SDS011;33273;52.254;7.988;2022-11-15T12:45:41;2.08;;;1.30;;
47531;SDS011;33273;52.254;7.988;2022-11-15T12:58:59;3.40;;;1.77;;
47531;SDS011;33273;52.254;7.988;2022-11-15T13:06:47;1.75;;;1.23;;
47531;SDS011;33273;52.254;7.988;2022-11-15T13:22:43;1.60;;;1.10;;
47531;SDS011;33273;52.254;7.988;2022-11-15T13:25:44;2.65;;;1.30;;
47531;SDS011;33273;52.254;7.988;2022-11-15T13:28:30;2.75;;;1.40;;
47531;SDS011;33273;52.254;7.988;2022-11-15T13:34:49;3.75;;;1.40;;
47531;SDS011;33273;52.254;7.988;2022-11-15T13:36:54;2.10;;;1.20;;
47531;SDS011;33273;52.254;7.988;2022-11-15T13:41:57;4.15;;;1.50;;
47531;SDS011;33273;52.254;7.988;2022-11-15T13:44:25;2.60;;;1.40;;
47531;SDS011;33273;52.254;7.988;2022-11-15T13:47:13;2.42;;;1.30;;
47531;SDS011;33273;52.254;7.988;2022-11-15T13:49:40;4.05;;;1.60;;
47531;SDS011;33273;52.254;7.988;2022-11-15T13:52:07;3.13;;;1.35;;
47531;SDS011;33273;52.254;7.988;2022-11-15T13:54:57;4.40;;;1.60;;
47531;SDS011;33273;52.254;7.988;2022-11-15T13:57:25;2.45;;;1.40;;
47531;SDS011;33273;52.254;7.988;2022-11-15T14:00:05;4.38;;;1.38;;
47531;SDS011;33273;52.254;7.988;2022-11-15T14:02:50;2.92;;;1.38;;
47531;SDS011;33273;52.254;7.988;2022-11-15T14:05:17;3.10;;;1.55;;
47531;SDS011;33273;52.254;7.988;2022-11-15T14:08:01;3.38;;;1.65;;
47531;SDS011;33273;52.254;7.988;2022-11-15T14:10:37;2.63;;;1.48;;
47531;SDS011;33273;52.254;7.988;2022-11-15T14:13:04;4.38;;;1.45;;
47531;SDS011;33273;52.254;7.988;2022-11-15T14:15:50;2.03;;;1.30;;
47531;SDS011;33273;52.254;7.988;2022-11-15T14:18:39;2.27;;;1.40;;
47531;SDS011;33273;52.254;7.988;2022-11-15T14:21:08;2.55;;;1.40;;
47531;SDS011;33273;52.254;7.988;2022-11-15T14:23:36;2.17;;;1.52;;
47531;SDS011;33273;52.254;7.988;2022-11-15T14:26:02;2.70;;;1.42;;
47531;SDS011;33273;52.254;7.988;2022-11-15T14:28:30;3.53;;;1.77;;
47531;SDS011;33273;52.254;7.988;2022-11-15T14:30:59;3.75;;;1.60;;
47531;SDS011;33273;52.254;7.988;2022-11-15T14:33:35;9.02;;;1.88;;
47531;SDS011;33273;52.254;7.988;2022-11-15T14:36:12;2.10;;;1.30;;
47531;SDS011;33273;52.254;7.988;2022-11-15T14:38:43;3.90;;;1.73;;
47531;SDS011;33273;52.254;7.988;2022-11-15T14:41:27;1.63;;;1.20;;
47531;SDS011;33273;52.254;7.988;2022-11-15T14:43:59;3.20;;;2.00;;
47531;SDS011;33273;52.254;7.988;2022-11-15T14:46:25;3.03;;;1.92;;
47531;SDS011;33273;52.254;7.988;2022-11-15T14:48:51;5.57;;;1.90;;
47531;SDS011;33273;52.254;7.988;2022-11-15T14:51:17;4.53;;;1.73;;
47531;SDS011;33273;52.254;7.988;2022-11-15T14:53:44;2.65;;;1.65;;
47531;SDS011;33273;52.254;7.988;2022-11-15T14:56:11;5.22;;;2.10;;
47531;SDS011;33273;52.254;7.988;2022-11-15T14:58:38;2.45;;;1.48;;
47531;SDS011;33273;52.254;7.988;2022-11-15T15:01:13;3.78;;;1.75;;
47531;SDS011;33273;52.254;7.988;2022-11-15T15:03:42;2.63;;;1.70;;
47531;SDS011;33273;52.254;7.988;2022-11-15T15:06:09;4.55;;;1.83;;
47531;SDS011;33273;52.254;7.988;2022-11-15T15:08:38;3.42;;;1.70;;
47531;SDS011;33273;52.254;7.988;2022-11-15T15:11:15;4.72;;;1.92;;
47531;SDS011;33273;52.254;7.988;2022-11-15T15:13:49;2.88;;;2.00;;
47531;SDS011;33273;52.254;7.988;2022-11-15T15:16:15;3.55;;;1.95;;
47531;SDS011;33273;52.254;7.988;2022-11-15T15:18:41;3.47;;;1.60;;
47531;SDS011;33273;52.254;7.988;2022-11-15T15:23:49;4.28;;;2.25;;
47531;SDS011;33273;52.254;7.988;2022-11-15T15:26:16;4.68;;;2.38;;
47531;SDS011;33273;52.254;7.988;2022-11-15T15:28:42;4.65;;;2.10;;
47531;SDS011;33273;52.254;7.988;2022-11-15T15:31:08;4.32;;;2.20;;
47531;SDS011;33273;52.254;7.988;2022-11-15T15:33:35;3.78;;;2.30;;
47531;SDS011;33273;52.254;7.988;2022-11-15T15:36:01;3.45;;;2.00;;
47531;SDS011;33273;52.254;7.988;2022-11-15T15:38:28;3.43;;;2.57;;
47531;SDS011;33273;52.254;7.988;2022-11-15T15:40:54;3.95;;;2.85;;
47531;SDS011;33273;52.254;7.988;2022-11-15T15:43:20;4.05;;;2.63;;
47531;SDS011;33273;52.254;7.988;2022-11-15T15:45:46;6.72;;;2.30;;
47531;SDS011;33273;52.254;7.988;2022-11-15T15:48:13;8.82;;;4.53;;
47531;SDS011;33273;52.254;7.988;2022-11-15T15:50:40;9.10;;;6.25;;
47531;SDS011;33273;52.254;7.988;2022-11-15T15:53:08;7.18;;;4.03;;
47531;SDS011;33273;52.254;7.988;2022-11-15T15:55:38;6.38;;;4.20;;
47531;SDS011;33273;52.254;7.988;2022-11-15T15:58:04;5.22;;;3.10;;
47531;SDS011;33273;52.254;7.988;2022-11-15T16:00:33;5.70;;;4.05;;
47531;SDS011;33273;52.254;7.988;2022-11-15T16:02:59;5.28;;;2.90;;
47531;SDS011;33273;52.254;7.988;2022-11-15T16:05:25;6.53;;;3.17;;
47531;SDS011;33273;52.254;7.988;2022-11-15T16:07:51;6.63;;;4.77;;
47531;SDS011;33273;52.254;7.988;2022-11-15T16:10:24;4.13;;;2.60;;
47531;SDS011;33273;52.254;7.988;2022-11-15T16:12:50;5.18;;;2.50;;
47531;SDS011;33273;52.254;7.988;2022-11-15T16:17:53;5.30;;;2.67;;
47531;SDS011;33273;52.254;7.988;2022-11-15T16:20:28;5.25;;;2.67;;
47531;SDS011;33273;52.254;7.988;2022-11-15T16:23:02;5.10;;;2.63;;
47531;SDS011;33273;52.254;7.988;2022-11-15T16:25:31;6.80;;;3.38;;
47531;SDS011;33273;52.254;7.988;2022-11-15T16:28:26;4.78;;;2.78;;
47531;SDS011;33273;52.254;7.988;2022-11-15T16:33:35;5.22;;;3.58;;
47531;SDS011;33273;52.254;7.988;2022-11-15T16:36:02;5.47;;;3.22;;
47531;SDS011;33273;52.254;7.988;2022-11-15T16:38:31;6.95;;;2.80;;
47531;SDS011;33273;52.254;7.988;2022-11-15T16:43:24;5.35;;;3.17;;
47531;SDS011;33273;52.254;7.988;2022-11-15T16:45:50;5.10;;;2.80;;
47531;SDS011;33273;52.254;7.988;2022-11-15T16:48:22;4.57;;;2.72;;
47531;SDS011;33273;52.254;7.988;2022-11-15T16:50:49;7.55;;;4.15;;
47531;SDS011;33273;52.254;7.988;2022-11-15T16:53:16;4.45;;;3.50;;
47531;SDS011;33273;52.254;7.988;2022-11-15T16:55:42;12.27;;;8.77;;
47531;SDS011;33273;52.254;7.988;2022-11-15T16:58:09;19.53;;;9.13;;
47531;SDS011;33273;52.254;7.988;2022-11-15T17:00:36;10.43;;;7.05;;
47531;SDS011;33273;52.254;7.988;2022-11-15T17:03:04;9.95;;;6.25;;
47531;SDS011;33273;52.254;7.988;2022-11-15T17:05:31;14.18;;;10.63;;
47531;SDS011;33273;52.254;7.988;2022-11-15T17:07:57;19.33;;;13.60;;
47531;SDS011;33273;52.254;7.988;2022-11-15T17:10:23;28.45;;;19.30;;
47531;SDS011;33273;52.254;7.988;2022-11-15T17:12:50;18.67;;;12.40;;
47531;SDS011;33273;52.254;7.988;2022-11-15T17:15:17;85.35;;;55.30;;
47531;SDS011;33273;52.254;7.988;2022-11-15T17:17:49;50.42;;;33.28;;
47531;SDS011;33273;52.254;7.988;2022-11-15T17:20:18;32.78;;;23.10;;
47531;SDS011;33273;52.254;7.988;2022-11-15T17:22:45;16.17;;;11.13;;
47531;SDS011;33273;52.254;7.988;2022-11-15T17:25:11;8.13;;;6.20;;
47531;SDS011;33273;52.254;7.988;2022-11-15T17:27:37;6.28;;;4.72;;
47531;SDS011;33273;52.254;7.988;2022-11-15T17:30:03;6.72;;;4.53;;
47531;SDS011;33273;52.254;7.988;2022-11-15T17:32:31;13.88;;;12.40;;
47531;SDS011;33273;52.254;7.988;2022-11-15T17:34:59;15.93;;;13.70;;
47531;SDS011;33273;52.254;7.988;2022-11-15T17:37:25;16.13;;;11.70;;
47531;SDS011;33273;52.254;7.988;2022-11-15T17:39:51;11.00;;;7.30;;
47531;SDS011;33273;52.254;7.988;2022-11-15T17:42:16;19.83;;;15.73;;
47531;SDS011;33273;52.254;7.988;2022-11-15T17:44:43;10.80;;;8.13;;
47531;SDS011;33273;52.254;7.988;2022-11-15T17:47:13;6.90;;;4.95;;
47531;SDS011;33273;52.254;7.988;2022-11-15T17:49:40;5.85;;;4.05;;
47531;SDS011;33273;52.254;7.988;2022-11-15T17:52:06;5.78;;;3.97;;
47531;SDS011;33273;52.254;7.988;2022-11-15T17:54:33;5.55;;;3.85;;
47531;SDS011;33273;52.254;7.988;2022-11-15T17:56:59;6.13;;;4.23;;
47531;SDS011;33273;52.254;7.988;2022-11-15T17:59:24;9.13;;;3.83;;
47531;SDS011;33273;52.254;7.988;2022-11-15T18:01:50;5.97;;;3.67;;
47531;SDS011;33273;52.254;7.988;2022-11-15T18:04:18;6.43;;;3.35;;
47531;SDS011;33273;52.254;7.988;2022-11-15T18:06:44;3.92;;;2.80;;
47531;SDS011;33273;52.254;7.988;2022-11-15T18:09:10;4.53;;;3.03;;
47531;SDS011;33273;52.254;7.988;2022-11-15T18:11:38;7.05;;;3.78;;
47531;SDS011;33273;52.254;7.988;2022-11-15T18:14:11;6.10;;;2.97;;
47531;SDS011;33273;52.254;7.988;2022-11-15T18:16:39;4.10;;;3.08;;
47531;SDS011;33273;52.254;7.988;2022-11-15T18:19:05;5.22;;;2.70;;
47531;SDS011;33273;52.254;7.988;2022-11-15T18:21:37;4.80;;;3.08;;
47531;SDS011;33273;52.254;7.988;2022-11-15T18:24:24;4.70;;;2.60;;
47531;SDS011;33273;52.254;7.988;2022-11-15T18:26:54;5.55;;;3.08;;
47531;SDS011;33273;52.254;7.988;2022-11-15T18:31:48;4.05;;;2.70;;
47531;SDS011;33273;52.254;7.988;2022-11-15T18:34:19;4.25;;;2.55;;
47531;SDS011;33273;52.254;7.988;2022-11-15T18:36:52;4.05;;;2.63;;
47531;SDS011;33273;52.254;7.988;2022-11-15T18:39:18;4.28;;;2.75;;
47531;SDS011;33273;52.254;7.988;2022-11-15T18:41:44;5.38;;;3.63;;
47531;SDS011;33273;52.254;7.988;2022-11-15T18:44:11;4.43;;;2.70;;
47531;SDS011;33273;52.254;7.988;2022-11-15T18:46:37;4.88;;;2.65;;
47531;SDS011;33273;52.254;7.988;2022-11-15T18:49:04;3.85;;;2.63;;
47531;SDS011;33273;52.254;7.988;2022-11-15T18:51:33;5.78;;;3.17;;